Time;durP1;ratioP1;P1;durP2;ratioP2;P2;SDS_P1;SDS_P2;PMS_P1;PMS_P2;Temp;Humidity;BMP_temperature;BMP_pressure;BME280_temperature;BME280_humidity;BME280_pressure;Samples;Min_cycle;Max_cycle;Signal;HPM_P1;HPM_P2
2022/10/17 00:00:15;;;;;;;7.97;2.70;;;;;;;12.55;100.00;99500.56;5065970;28;20059;-77
2022/10/17 00:02:42;;;;;;;8.30;2.40;;;;;;;12.48;100.00;99502.38;5066818;28;20060;-77
2022/10/17 00:05:11;;;;;;;7.68;2.13;;;;;;;12.51;100.00;99503.88;5071843;28;20049;-77
2022/10/17 00:07:37;;;;;;;6.88;2.10;;;;;;;12.56;100.00;99512.34;5082260;28;20052;-77
2022/10/17 00:10:05;;;;;;;3.70;2.13;;;;;;;12.39;100.00;99507.09;5081116;28;20063;-77
2022/10/17 00:12:32;;;;;;;9.20;2.40;;;;;;;12.27;100.00;99507.72;5077563;28;20128;-77
2022/10/17 00:14:58;;;;;;;11.77;2.40;;;;;;;12.28;100.00;99501.25;5073688;28;20044;-77
2022/10/17 00:17:25;;;;;;;5.18;2.03;;;;;;;12.21;100.00;99496.56;5073973;28;20047;-77
2022/10/17 00:19:52;;;;;;;3.65;1.80;;;;;;;12.26;100.00;99500.59;5087279;28;20056;-77
2022/10/17 00:22:20;;;;;;;3.47;2.08;;;;;;;12.05;100.00;99499.47;5084268;28;20784;-77
2022/10/17 00:24:46;;;;;;;6.95;1.90;;;;;;;12.25;100.00;99523.44;5081664;28;20067;-77
2022/10/17 00:27:13;;;;;;;4.25;1.85;;;;;;;12.10;100.00;99517.97;5064954;28;20316;-77
2022/10/17 00:29:39;;;;;;;11.30;2.08;;;;;;;12.01;100.00;99498.13;5060268;28;20136;-77
2022/10/17 00:32:06;;;;;;;2.05;1.50;;;;;;;12.04;100.00;99504.06;5051664;28;20061;-77
2022/10/17 00:34:32;;;;;;;15.40;2.95;;;;;;;12.33;100.00;99537.84;5052029;28;20047;-77
2022/10/17 00:36:59;;;;;;;6.63;1.45;;;;;;;12.26;100.00;99520.53;5053981;28;20045;-77
2022/10/17 00:39:27;;;;;;;10.25;3.63;;;;;;;12.18;100.00;99516.00;5062577;28;20058;-77
2022/10/17 00:41:53;;;;;;;4.93;1.27;;;;;;;12.20;100.00;99503.03;5056780;28;20552;-77
2022/10/17 00:44:58;;;;;;;9.35;1.70;;;;;;;12.32;100.00;99530.69;5054644;28;20053;-77
2022/10/17 00:47:25;;;;;;;5.72;2.20;;;;;;;12.24;100.00;99529.91;5057366;28;20114;-77
2022/10/17 00:49:52;;;;;;;3.85;1.65;;;;;;;12.20;100.00;99534.91;5061047;28;20135;-77
2022/10/17 00:52:24;;;;;;;6.53;2.58;;;;;;;12.06;100.00;99527.53;5064830;28;20188;-77
2022/10/17 00:54:59;;;;;;;11.18;2.13;;;;;;;11.99;100.00;99503.75;5057829;28;20140;-77
2022/10/17 00:57:29;;;;;;;7.53;1.85;;;;;;;11.95;100.00;99510.59;5062959;28;20053;-76
2022/10/17 00:59:57;;;;;;;;;;;;;;;12.08;100.00;99539.97;5055231;28;20132;-77
2022/10/17 01:02:24;;;;;;;2.53;1.52;;;;;;;11.87;100.00;99518.84;5062840;28;20020;-77
2022/10/17 01:04:53;;;;;;;6.30;1.48;;;;;;;11.90;100.00;99512.19;5063785;28;20403;-77
2022/10/17 01:07:21;;;;;;;6.65;1.65;;;;;;;11.83;100.00;99510.22;5056909;28;20492;-77
2022/10/17 01:09:48;;;;;;;5.88;2.03;;;;;;;11.86;100.00;99530.75;5070196;28;20054;-77
2022/10/17 01:12:22;;;;;;;2.58;1.50;;;;;;;11.81;100.00;99534.03;5067386;28;20084;-77
2022/10/17 01:15:01;;;;;;;3.22;1.60;;;;;;;11.62;100.00;99512.75;5053432;28;20499;-77
2022/10/17 01:17:35;;;;;;;5.45;1.85;;;;;;;11.55;100.00;99520.81;5069916;28;20585;-77
2022/10/17 01:20:31;;;;;;;8.15;1.42;;;;;;;11.66;100.00;99542.16;5065717;28;20053;-77
2022/10/17 01:23:13;;;;;;;5.18;1.67;;;;;;;11.67;100.00;99522.09;5056463;28;20131;-77
2022/10/17 01:25:52;;;;;;;4.47;1.80;;;;;;;11.78;100.00;99533.56;5063193;28;20137;-77
2022/10/17 01:28:36;;;;;;;3.00;1.70;;;;;;;11.75;100.00;99539.38;5059368;28;20044;-77
2022/10/17 01:31:10;;;;;;;5.78;2.83;;;;;;;11.62;100.00;99542.72;5057438;28;20052;-77
2022/10/17 01:33:47;;;;;;;4.53;1.70;;;;;;;11.54;100.00;99542.78;5052802;28;20511;-77
2022/10/17 01:36:25;;;;;;;2.97;1.98;;;;;;;11.58;100.00;99544.13;5064162;28;20056;-77
2022/10/17 01:38:58;;;;;;;7.35;1.88;;;;;;;11.49;100.00;99538.72;5058987;28;20132;-77
2022/10/17 01:41:33;;;;;;;2.88;1.85;;;;;;;11.33;100.00;99517.06;5065049;28;20062;-77
2022/10/17 01:44:05;;;;;;;8.48;2.20;;;;;;;11.43;100.00;99544.91;5068722;28;20488;-77
2022/10/17 01:46:37;;;;;;;8.25;1.90;;;;;;;11.28;100.00;99517.63;5058424;28;20051;-77
2022/10/17 01:49:05;;;;;;;3.63;1.73;;;;;;;11.23;100.00;99535.50;5070739;28;20056;-77
2022/10/17 01:51:37;;;;;;;6.30;1.67;;;;;;;11.09;100.00;99518.91;5055999;28;20045;-77
2022/10/17 01:54:13;;;;;;;5.05;1.60;;;;;;;11.06;100.00;99513.84;5065153;28;20051;-77
2022/10/17 01:56:42;;;;;;;3.33;1.90;;;;;;;11.18;100.00;99525.16;5065879;28;20055;-77
2022/10/17 01:59:13;;;;;;;7.40;1.70;;;;;;;11.23;100.00;99519.19;5069233;28;20488;-77
2022/10/17 02:01:42;;;;;;;5.10;1.80;;;;;;;11.31;100.00;99533.59;5068973;28;20064;-77
2022/10/17 02:04:11;;;;;;;9.25;2.20;;;;;;;11.31;100.00;99546.34;5052367;28;20053;-77
2022/10/17 02:06:40;;;;;;;3.70;1.77;;;;;;;11.13;100.00;99538.47;5057515;28;20063;-77
2022/10/17 02:09:18;;;;;;;14.15;2.40;;;;;;;11.13;100.00;99542.03;5062420;28;20073;-77
2022/10/17 02:11:54;;;;;;;10.07;1.80;;;;;;;10.89;100.00;99507.66;5060130;28;20041;-77
2022/10/17 02:14:32;;;;;;;4.65;2.17;;;;;;;10.97;100.00;99532.13;5070897;28;20059;-77
2022/10/17 02:17:13;;;;;;;3.25;1.80;;;;;;;10.77;100.00;99511.81;5063027;28;20095;-77
2022/10/17 02:19:58;;;;;;;8.63;1.40;;;;;;;11.03;100.00;99538.69;5064071;28;20068;-77
2022/10/17 02:22:35;;;;;;;8.02;1.80;;;;;;;11.02;100.00;99530.72;5061195;28;20390;-77
2022/10/17 02:25:11;;;;;;;2.70;1.67;;;;;;;10.97;100.00;99542.13;5069666;28;20048;-77
2022/10/17 02:27:45;;;;;;;9.38;1.85;;;;;;;10.87;100.00;99503.41;5067582;28;20052;-77
2022/10/17 02:30:15;;;;;;;17.80;1.95;;;;;;;10.93;100.00;99508.13;5067793;28;20055;-77
2022/10/17 02:32:50;;;;;;;4.88;1.50;;;;;;;10.94;100.00;99513.44;5054266;28;20064;-77
2022/10/17 02:35:19;;;;;;;7.15;1.70;;;;;;;10.92;100.00;99510.03;5058042;28;20052;-77
2022/10/17 02:37:47;;;;;;;5.07;1.60;;;;;;;10.92;100.00;99531.78;5066457;28;20132;-77
2022/10/17 02:40:16;;;;;;;11.18;1.80;;;;;;;10.90;100.00;99530.25;5074469;28;20055;-77
2022/10/17 02:42:45;;;;;;;5.07;1.20;;;;;;;10.86;100.00;99515.34;5055427;28;20051;-77
2022/10/17 02:45:14;;;;;;;8.23;1.50;;;;;;;10.96;100.00;99543.16;5056593;28;20055;-77
2022/10/17 02:47:50;;;;;;;5.75;2.13;;;;;;;10.80;100.00;99534.03;5069757;28;20044;-77
2022/10/17 02:50:19;;;;;;;4.00;1.67;;;;;;;10.71;100.00;99528.84;5057660;28;20139;-77
2022/10/17 02:52:50;;;;;;;4.60;1.55;;;;;;;10.63;100.00;99510.69;5064867;28;20041;-77
2022/10/17 02:55:19;;;;;;;6.93;1.52;;;;;;;10.56;100.00;99518.69;5070178;28;20385;-77
2022/10/17 02:57:49;;;;;;;11.02;1.42;;;;;;;10.60;100.00;99541.78;5057958;28;20493;-77
2022/10/17 03:00:17;;;;;;;9.93;1.63;;;;;;;10.78;100.00;99554.31;5076705;28;20059;-77
2022/10/17 03:02:45;;;;;;;5.97;1.65;;;;;;;10.79;100.00;99555.97;5073489;28;20052;-77
2022/10/17 03:05:16;;;;;;;10.02;1.70;;;;;;;10.60;100.00;99516.50;5063930;28;20052;-77
2022/10/17 03:07:43;;;;;;;5.07;1.90;;;;;;;10.74;100.00;99548.34;5073387;28;20052;-77
2022/10/17 03:10:10;;;;;;;20.10;2.53;;;;;;;10.68;100.00;99540.06;5077906;28;20045;-77
2022/10/17 03:12:36;;;;;;;5.85;1.60;;;;;;;10.69;100.00;99518.13;5070887;28;20048;-77
2022/10/17 03:15:03;;;;;;;6.13;1.77;;;;;;;10.75;100.00;99547.34;5071014;28;20041;-77
2022/10/17 03:17:31;;;;;;;10.43;1.63;;;;;;;10.79;100.00;99547.81;5059622;28;20053;-77
2022/10/17 03:19:58;;;;;;;3.42;1.60;;;;;;;10.83;100.00;99551.06;5063905;28;20114;-77
2022/10/17 03:22:25;;;;;;;10.07;4.05;;;;;;;10.61;100.00;99545.34;5076031;28;20056;-77
2022/10/17 03:24:52;;;;;;;6.55;1.77;;;;;;;10.55;100.00;99541.47;5075646;28;20054;-77
2022/10/17 03:27:19;;;;;;;6.40;1.65;;;;;;;10.59;100.00;99566.44;5067809;28;20048;-77
2022/10/17 03:29:45;;;;;;;10.27;2.00;;;;;;;10.41;100.00;99526.72;5065102;28;20055;-77
2022/10/17 03:32:12;;;;;;;11.05;2.10;;;;;;;10.45;100.00;99549.81;5064057;28;20063;-77
2022/10/17 03:34:38;;;;;;;23.00;2.17;;;;;;;10.48;100.00;99564.06;5062686;28;20131;-77
2022/10/17 03:37:05;;;;;;;3.17;1.60;;;;;;;10.30;100.00;99547.97;5078107;28;20136;-77
2022/10/17 03:39:33;;;;;;;3.95;1.67;;;;;;;10.41;100.00;99561.22;5082525;28;20052;-77
2022/10/17 03:41:59;;;;;;;4.30;1.52;;;;;;;10.38;100.00;99564.28;5079684;28;20522;-77
2022/10/17 03:44:28;;;;;;;3.35;1.50;;;;;;;10.42;100.00;99560.22;5079033;28;20407;-77
2022/10/17 03:46:55;;;;;;;18.15;1.73;;;;;;;10.16;100.00;99549.53;5066330;28;20059;-77
2022/10/17 03:49:22;;;;;;;6.65;1.90;;;;;;;10.19;100.00;99541.03;5064670;28;20518;-77
2022/10/17 03:51:48;;;;;;;4.15;1.60;;;;;;;10.32;100.00;99554.91;5067166;28;20183;-77
2022/10/17 03:54:15;;;;;;;4.75;1.90;;;;;;;10.25;100.00;99545.75;5067495;28;20060;-77
2022/10/17 03:56:43;;;;;;;11.18;3.15;;;;;;;10.31;100.00;99566.81;5081789;28;20052;-77
2022/10/17 03:59:13;;;;;;;10.60;1.77;;;;;;;10.36;100.00;99577.22;5079895;28;20052;-77
2022/10/17 04:01:39;;;;;;;1.50;1.13;;;;;;;10.33;100.00;99578.41;5082093;28;20051;-76
2022/10/17 04:04:06;;;;;;;10.25;2.50;;;;;;;10.13;100.00;99552.59;5071454;28;20230;-77
2022/10/17 04:06:33;;;;;;;7.57;1.77;;;;;;;10.16;100.00;99558.53;5073218;28;20051;-77
2022/10/17 04:09:00;;;;;;;9.95;1.90;;;;;;;10.07;100.00;99567.69;5062717;28;20400;-77
2022/10/17 04:11:26;;;;;;;12.63;1.38;;;;;;;10.22;100.00;99585.03;5092616;28;20456;-77
2022/10/17 04:13:55;;;;;;;4.05;1.50;;;;;;;10.12;100.00;99578.03;5065382;28;20083;-77
2022/10/17 04:16:23;;;;;;;4.03;1.60;;;;;;;10.05;100.00;99578.75;5067594;28;20511;-77
2022/10/17 04:18:53;;;;;;;12.32;1.30;;;;;;;9.96;100.00;99565.34;5051307;28;20041;-77
2022/10/17 04:21:19;;;;;;;;;;;;;;;10.07;100.00;99590.31;5062477;28;20051;-77
2022/10/17 04:23:46;;;;;;;9.60;2.60;;;;;;;9.94;100.00;99562.81;5051764;28;19931;-77
2022/10/17 04:26:12;;;;;;;8.57;1.90;;;;;;;10.08;100.00;99589.25;5061426;28;20563;-77
2022/10/17 04:28:39;;;;;;;4.00;2.33;;;;;;;10.13;100.00;99588.75;5060257;28;20056;-77
2022/10/17 04:31:11;;;;;;;15.80;1.92;;;;;;;9.98;100.00;99568.72;5063596;28;20076;-77
2022/10/17 04:33:38;;;;;;;7.68;1.50;;;;;;;10.10;100.00;99587.25;5056329;28;20515;-77
2022/10/17 04:36:06;;;;;;;5.78;1.40;;;;;;;9.97;100.00;99577.91;5063374;28;20048;-77
2022/10/17 04:38:33;;;;;;;8.75;1.50;;;;;;;9.96;100.00;99597.94;5083435;28;20048;-77
2022/10/17 04:41:02;;;;;;;2.63;1.85;;;;;;;9.86;100.00;99589.94;5072589;28;20044;-77
2022/10/17 04:43:28;;;;;;;8.27;1.85;;;;;;;9.81;100.00;99576.88;5059737;28;20052;-77
2022/10/17 04:45:57;;;;;;;12.40;1.95;;;;;;;9.89;100.00;99584.19;5057409;28;20048;-77
2022/10/17 04:48:25;;;;;;;5.85;2.08;;;;;;;9.88;100.00;99582.50;5053448;28;20048;-77
2022/10/17 04:50:55;;;;;;;5.88;1.50;;;;;;;10.01;100.00;99599.13;5057414;28;20055;-77
2022/10/17 04:53:21;;;;;;;;;;;;;;;10.10;100.00;99611.69;5077038;28;20052;-77
2022/10/17 04:55:48;;;;;;;5.00;1.50;;;;;;;9.99;100.00;99590.28;5068170;28;19931;-77
2022/10/17 04:58:14;;;;;;;3.35;1.38;;;;;;;10.17;100.00;99620.00;5067357;28;20060;-77
2022/10/17 05:00:41;;;;;;;12.13;2.38;;;;;;;10.02;100.00;99603.53;5057899;28;20055;-77
2022/10/17 05:03:08;;;;;;;5.50;1.75;;;;;;;9.77;100.00;99590.97;5068345;28;20045;-77
2022/10/17 05:05:39;;;;;;;7.00;1.80;;;;;;;9.81;100.00;99597.78;5063218;28;20048;-77
2022/10/17 05:08:05;;;;;;;8.57;1.42;;;;;;;9.76;100.00;99594.72;5064544;28;20045;-77
2022/10/17 05:10:36;;;;;;;11.40;1.60;;;;;;;9.78;100.00;99612.53;5067477;28;20049;-77
2022/10/17 05:13:03;;;;;;;11.32;1.65;;;;;;;9.85;100.00;99596.44;5069314;28;20131;-77
2022/10/17 05:15:29;;;;;;;2.55;1.60;;;;;;;9.90;100.00;99608.44;5069790;28;20048;-77
2022/10/17 05:17:56;;;;;;;6.82;1.80;;;;;;;9.85;100.00;99591.81;5068253;28;20053;-77
2022/10/17 05:20:23;;;;;;;10.10;1.73;;;;;;;9.89;100.00;99597.75;5063673;28;20044;-77
2022/10/17 05:22:51;;;;;;;4.13;1.50;;;;;;;9.83;100.00;99603.88;5068173;28;20047;-77
2022/10/17 05:25:17;;;;;;;3.58;1.77;;;;;;;9.88;100.00;99604.22;5061172;28;20135;-77
2022/10/17 05:27:44;;;;;;;14.23;1.88;;;;;;;9.88;100.00;99587.94;5060810;28;20235;-76
2022/10/17 05:30:11;;;;;;;13.02;2.22;;;;;;;9.90;100.00;99586.72;5059723;28;20048;-77
2022/10/17 05:32:38;;;;;;;3.45;1.90;;;;;;;10.00;100.00;99602.88;5059867;28;20048;-77
2022/10/17 05:35:06;;;;;;;16.10;2.85;;;;;;;10.08;100.00;99608.28;5057239;28;20049;-77
2022/10/17 05:37:32;;;;;;;3.67;1.70;;;;;;;10.23;100.00;99613.88;5083454;28;20055;-77
2022/10/17 05:40:00;;;;;;;3.78;1.63;;;;;;;10.15;100.00;99613.88;5062325;28;20422;-77
2022/10/17 05:42:27;;;;;;;10.70;2.33;;;;;;;10.25;100.00;99621.84;5083031;28;20049;-77
2022/10/17 05:44:53;;;;;;;8.32;1.85;;;;;;;10.11;100.00;99609.81;5060546;28;20045;-77
2022/10/17 05:47:20;;;;;;;4.13;1.60;;;;;;;10.09;100.00;99592.84;5049168;28;20049;-77
2022/10/17 05:49:46;;;;;;;7.07;1.95;;;;;;;10.24;100.00;99626.44;5061131;28;20050;-77
2022/10/17 05:52:13;;;;;;;6.60;2.00;;;;;;;10.14;100.00;99605.91;5067615;28;20412;-77
2022/10/17 05:54:39;;;;;;;9.57;1.90;;;;;;;10.06;100.00;99607.59;5054056;28;20051;-77
2022/10/17 05:57:07;;;;;;;4.18;1.50;;;;;;;10.12;100.00;99605.22;5054308;28;20124;-77
2022/10/17 05:59:34;;;;;;;9.68;2.22;;;;;;;10.07;100.00;99628.34;5053778;28;20395;-77
2022/10/17 06:02:00;;;;;;;11.18;1.75;;;;;;;10.17;100.00;99630.03;5058799;28;20053;-76
2022/10/17 06:04:27;;;;;;;7.75;2.00;;;;;;;10.15;100.00;99621.19;5054271;28;20127;-77
2022/10/17 06:06:55;;;;;;;7.05;1.67;;;;;;;10.22;100.00;99633.06;5061061;28;20428;-77
2022/10/17 06:09:23;;;;;;;4.72;1.75;;;;;;;10.09;100.00;99620.84;5063714;28;20050;-77
2022/10/17 06:11:49;;;;;;;3.90;2.10;;;;;;;10.02;100.00;99616.28;5057711;28;20051;-77
2022/10/17 06:14:17;;;;;;;3.15;2.08;;;;;;;9.96;100.00;99614.25;5068605;28;20051;-77
2022/10/17 06:16:44;;;;;;;7.70;2.20;;;;;;;10.15;100.00;99645.66;5051448;28;20056;-77
2022/10/17 06:19:10;;;;;;;7.40;2.30;;;;;;;10.05;100.00;99626.78;5067829;28;20480;-77
2022/10/17 06:21:37;;;;;;;4.32;2.28;;;;;;;10.23;100.00;99651.91;5072697;28;20051;-77
2022/10/17 06:24:04;;;;;;;3.10;1.52;;;;;;;10.25;100.00;99633.59;5060490;28;20052;-77
2022/10/17 06:26:30;;;;;;;5.45;1.70;;;;;;;10.11;100.00;99612.53;5056827;28;20139;-77
2022/10/17 06:28:57;;;;;;;5.50;1.90;;;;;;;10.17;100.00;99621.88;5066519;28;20056;-77
2022/10/17 06:31:25;;;;;;;10.93;2.97;;;;;;;10.31;100.00;99639.34;5061981;28;20049;-77
2022/10/17 06:33:52;;;;;;;4.80;2.45;;;;;;;10.08;100.00;99619.13;5054248;28;20488;-77
2022/10/17 06:36:18;;;;;;;4.35;1.60;;;;;;;10.14;100.00;99631.19;5074136;28;20485;-77
2022/10/17 06:38:45;;;;;;;9.90;1.88;;;;;;;10.12;100.00;99624.22;5080760;28;20519;-77
2022/10/17 06:41:14;;;;;;;3.38;1.55;;;;;;;10.07;100.00;99625.63;5057656;28;20063;-77
2022/10/17 06:43:45;;;;;;;4.13;1.92;;;;;;;10.07;100.00;99630.19;5071848;28;20048;-77
2022/10/17 06:46:12;;;;;;;24.88;3.50;;;;;;;10.27;100.00;99658.72;5049264;28;20045;-77
2022/10/17 06:48:40;;;;;;;10.60;1.98;;;;;;;10.28;100.00;99662.25;5058199;28;20146;-77
2022/10/17 06:51:08;;;;;;;7.30;2.10;;;;;;;10.32;100.00;99663.63;5053780;28;20045;-77
2022/10/17 06:53:36;;;;;;;12.15;3.33;;;;;;;10.39;100.00;99651.09;5057564;28;20132;-77
2022/10/17 06:56:03;;;;;;;6.50;4.05;;;;;;;10.57;100.00;99679.97;5063319;28;20045;-77
2022/10/17 06:58:31;;;;;;;12.40;3.83;;;;;;;10.42;100.00;99664.34;5072586;28;20056;-77
2022/10/17 07:01:01;;;;;;;9.23;3.92;;;;;;;10.54;100.00;99683.03;5065255;28;20545;-77
2022/10/17 07:03:27;;;;;;;;;;;;;;;10.66;100.00;99684.34;5050120;28;20124;-77
2022/10/17 07:05:55;;;;;;;7.20;4.15;;;;;;;10.68;100.00;99667.88;5056280;28;20019;-77
2022/10/17 07:08:22;;;;;;;7.57;3.50;;;;;;;10.71;100.00;99667.53;5063076;28;20056;-77
2022/10/17 07:10:49;;;;;;;7.15;3.47;;;;;;;10.76;100.00;99668.72;5049814;28;20053;-77
2022/10/17 07:13:16;;;;;;;15.27;4.20;;;;;;;10.87;100.00;99678.34;5049450;28;20059;-77
2022/10/17 07:15:43;;;;;;;10.88;3.80;;;;;;;11.00;100.00;99677.78;5065727;28;20049;-77
2022/10/17 07:18:09;;;;;;;7.25;3.17;;;;;;;11.26;100.00;99698.44;5074017;28;20060;-77
2022/10/17 07:20:36;;;;;;;7.22;2.85;;;;;;;11.34;100.00;99690.25;5064655;28;20052;-77
2022/10/17 07:23:04;;;;;;;10.20;3.30;;;;;;;11.45;100.00;99684.41;5064692;28;20047;-77
2022/10/17 07:25:31;;;;;;;7.82;2.97;;;;;;;11.56;100.00;99682.31;5049336;28;20740;-76
2022/10/17 07:27:58;;;;;;;22.88;4.90;;;;;;;11.80;100.00;99690.34;5060633;28;20053;-77
2022/10/17 07:30:25;;;;;;;7.30;2.80;;;;;;;11.94;100.00;99698.78;5064613;28;20052;-77
2022/10/17 07:32:53;;;;;;;5.63;2.40;;;;;;;11.98;100.00;99694.69;5068484;28;20068;-77
2022/10/17 07:35:20;;;;;;;3.05;2.72;;;;;;;12.13;100.00;99711.09;5069753;28;20519;-77
2022/10/17 07:37:46;;;;;;;7.13;3.00;;;;;;;12.21;100.00;99720.06;5056552;28;20466;-77
2022/10/17 07:40:14;;;;;;;5.72;2.10;;;;;;;12.09;100.00;99694.28;5053736;28;20484;-77
2022/10/17 07:42:41;;;;;;;12.98;2.70;;;;;;;12.22;100.00;99707.28;5060538;28;20544;-77
2022/10/17 07:45:08;;;;;;;6.78;2.53;;;;;;;12.27;100.00;99702.16;5053690;28;20049;-77
2022/10/17 07:47:35;;;;;;;12.13;3.55;;;;;;;12.57;100.00;99724.06;5059155;28;20451;-77
2022/10/17 07:50:02;;;;;;;4.20;2.53;;;;;;;12.56;100.00;99720.47;5054999;28;20048;-77
2022/10/17 07:52:28;;;;;;;13.80;2.30;;;;;;;12.64;100.00;99722.25;5052882;28;20171;-77
2022/10/17 07:54:55;;;;;;;10.55;2.75;;;;;;;12.92;100.00;99730.69;5052022;28;20055;-77
2022/10/17 07:57:23;;;;;;;7.82;2.60;;;;;;;12.78;100.00;99700.66;5063032;28;20057;-77
2022/10/17 07:59:50;;;;;;;4.93;2.20;;;;;;;13.04;100.00;99727.50;5058248;28;20420;-77
2022/10/17 08:02:21;;;;;;;5.13;2.22;;;;;;;13.05;100.00;99726.44;5057251;28;20059;-77
2022/10/17 08:04:48;;;;;;;14.25;2.53;;;;;;;13.18;100.00;99728.53;5064314;28;20044;-77
2022/10/17 08:07:15;;;;;;;10.32;2.70;;;;;;;13.13;100.00;99723.66;5058650;28;20053;-77
2022/10/17 08:09:42;;;;;;;5.05;2.20;;;;;;;13.20;100.00;99726.47;5053003;28;20536;-77
2022/10/17 08:12:09;;;;;;;6.15;2.38;;;;;;;13.24;100.00;99723.16;5058935;28;20055;-77
2022/10/17 08:14:38;;;;;;;8.55;2.70;;;;;;;13.42;100.00;99738.34;5071281;28;20495;-77
2022/10/17 08:17:04;;;;;;;12.88;2.55;;;;;;;13.55;100.00;99748.59;5062173;28;20041;-77
2022/10/17 08:19:31;;;;;;;9.45;3.00;;;;;;;13.57;100.00;99733.72;5071600;28;20052;-77
2022/10/17 08:21:58;;;;;;;9.07;2.78;;;;;;;13.64;100.00;99739.28;5052645;28;20522;-77
2022/10/17 08:24:24;;;;;;;8.73;2.55;;;;;;;13.75;100.00;99752.44;5060593;28;20206;-77
2022/10/17 08:26:52;;;;;;;8.18;2.22;;;;;;;13.84;100.00;99725.03;5052260;28;20053;-77
2022/10/17 08:29:19;;;;;;;4.82;2.38;;;;;;;13.92;100.00;99719.41;5052807;28;20053;-77
2022/10/17 08:31:47;;;;;;;4.70;1.98;;;;;;;14.14;100.00;99729.34;5064593;28;20056;-77
2022/10/17 08:34:14;;;;;;;10.23;2.10;;;;;;;14.19;100.00;99706.88;5075704;28;20048;-77
2022/10/17 08:36:41;;;;;;;5.53;1.92;;;;;;;14.34;100.00;99702.19;5055768;28;20131;-77
2022/10/17 08:39:08;;;;;;;3.03;1.80;;;;;;;14.51;100.00;99734.72;5052243;28;20069;-77
2022/10/17 08:41:45;;;;;;;7.82;2.97;;;;;;;14.63;100.00;99741.41;5052762;28;20052;-77
2022/10/17 08:44:22;;;;;;;4.75;2.33;;;;;;;14.70;100.00;99736.00;5050789;28;20052;-77
2022/10/17 08:46:53;;;;;;;16.35;3.95;;;;;;;14.75;100.00;99714.34;5067476;28;20113;-77
2022/10/17 08:49:27;;;;;;;7.05;2.00;;;;;;;14.88;100.00;99729.19;5056045;28;20575;-77
2022/10/17 08:52:01;;;;;;;3.63;2.00;;;;;;;15.08;100.00;99721.09;5059956;28;20044;-77
2022/10/17 08:54:38;;;;;;;4.28;1.63;;;;;;;15.33;100.00;99730.53;5066911;28;20351;-77
2022/10/17 08:57:09;;;;;;;8.90;1.70;;;;;;;15.50;100.00;99736.50;5052936;28;20044;-77
2022/10/17 08:59:35;;;;;;;7.03;1.50;;;;;;;15.48;100.00;99721.34;5052596;28;20041;-77
2022/10/17 09:02:21;;;;;;;8.32;1.60;;;;;;;15.47;100.00;99720.47;5059159;28;20048;-77
2022/10/17 09:05:05;;;;;;;8.93;1.63;;;;;;;15.64;100.00;99740.19;5061036;28;20120;-77
2022/10/17 09:07:40;;;;;;;4.65;1.60;;;;;;;15.79;100.00;99742.78;5055173;28;20048;-77
2022/10/17 09:10:14;;;;;;;2.80;1.30;;;;;;;15.87;100.00;99750.00;5050155;28;20059;-77
2022/10/17 09:12:51;;;;;;;9.65;1.85;;;;;;;15.89;100.00;99737.75;5063868;28;20077;-77
2022/10/17 09:15:38;;;;;;;9.57;1.80;;;;;;;16.10;100.00;99755.13;5057687;28;20142;-77
2022/10/17 09:18:13;;;;;;;7.90;1.75;;;;;;;16.24;100.00;99748.63;5053260;28;20146;-77
2022/10/17 09:20:44;;;;;;;12.15;2.30;;;;;;;16.20;100.00;99735.50;5059698;28;20056;-77
2022/10/17 09:23:16;;;;;;;3.78;1.80;;;;;;;16.27;100.00;99740.00;5068511;28;20048;-77
2022/10/17 09:25:45;;;;;;;3.65;1.52;;;;;;;16.33;100.00;99721.81;5060781;28;20069;-78
2022/10/17 09:28:15;;;;;;;5.33;1.73;;;;;;;16.56;100.00;99750.78;5061171;28;20056;-77
2022/10/17 09:30:44;;;;;;;3.65;1.48;;;;;;;16.56;100.00;99720.56;5066473;28;20060;-77
2022/10/17 09:33:14;;;;;;;5.80;1.73;;;;;;;16.63;100.00;99721.44;5060039;28;20721;-77
2022/10/17 09:35:42;;;;;;;6.30;1.85;;;;;;;16.73;100.00;99732.84;5063311;28;20564;-78
2022/10/17 09:38:16;;;;;;;3.85;1.60;;;;;;;16.96;100.00;99734.34;5076903;28;20547;-77
2022/10/17 09:40:43;;;;;;;4.13;1.65;;;;;;;16.92;100.00;99720.19;5062540;28;20063;-77
2022/10/17 09:43:13;;;;;;;4.75;1.90;;;;;;;16.93;100.00;99707.31;5065443;28;20139;-78
2022/10/17 09:45:46;;;;;;;5.05;1.92;;;;;;;16.98;100.00;99713.84;5066331;28;20037;-77
2022/10/17 09:48:23;;;;;;;5.38;1.40;;;;;;;17.20;100.00;99737.47;5076129;28;20513;-77
2022/10/17 09:50:51;;;;;;;4.25;1.50;;;;;;;17.32;100.00;99739.34;5052525;28;20141;-77
2022/10/17 09:53:22;;;;;;;6.80;1.63;;;;;;;17.39;100.00;99727.47;5057290;28;20264;-78
2022/10/17 09:55:51;;;;;;;3.15;1.52;;;;;;;17.49;100.00;99714.13;5072083;28;20044;-77
2022/10/17 09:58:20;;;;;;;2.58;1.48;;;;;;;17.71;100.00;99730.34;5055593;28;20041;-77
2022/10/17 10:00:48;;;;;;;6.07;1.83;;;;;;;17.80;100.00;99737.28;5066324;28;20052;-78
2022/10/17 10:03:18;;;;;;;3.40;1.67;;;;;;;17.97;100.00;99724.75;5062748;28;20064;-78
2022/10/17 10:06:00;;;;;;;5.93;1.80;;;;;;;18.01;100.00;99725.16;5077380;28;20052;-78
2022/10/17 10:08:29;;;;;;;2.92;1.40;;;;;;;17.98;100.00;99706.34;5064974;28;20040;-77
2022/10/17 10:11:04;;;;;;;4.57;1.40;;;;;;;18.18;100.00;99717.22;5077772;28;20541;-78
2022/10/17 10:13:32;;;;;;;2.92;1.50;;;;;;;18.22;100.00;99705.53;5062731;28;20063;-77
2022/10/17 10:16:17;;;;;;;5.65;1.85;;;;;;;18.46;100.00;99725.09;5066539;28;20063;-78
2022/10/17 10:18:46;;;;;;;4.95;1.58;;;;;;;18.48;100.00;99700.91;5065429;28;20044;-78
2022/10/17 10:21:15;;;;;;;3.60;1.48;;;;;;;18.51;94.88;99719.75;5062316;28;20563;-78
2022/10/17 10:23:43;;;;;;;1.85;1.23;;;;;;;18.61;99.80;99704.63;5065273;28;20084;-78
2022/10/17 10:26:34;;;;;;;6.65;1.40;;;;;;;18.64;95.13;99713.28;5072794;28;20132;-77
2022/10/17 10:29:05;;;;;;;2.92;1.42;;;;;;;18.73;94.77;99719.38;5064705;28;20143;-78
2022/10/17 10:31:35;;;;;;;4.60;1.50;;;;;;;18.78;94.86;99714.03;5068774;28;20059;-78
2022/10/17 10:34:14;;;;;;;1.52;1.00;;;;;;;18.86;91.40;99721.19;5074964;28;20049;-77
2022/10/17 10:36:48;;;;;;;6.33;1.57;;;;;;;18.97;91.33;99717.69;5076088;28;20487;-77
2022/10/17 10:39:31;;;;;;;4.45;1.20;;;;;;;19.13;92.73;99735.53;5060332;28;20297;-78
2022/10/17 10:41:59;;;;;;;6.88;1.48;;;;;;;19.20;88.53;99722.53;5055427;28;20040;-78
2022/10/17 10:44:29;;;;;;;4.07;1.85;;;;;;;19.26;91.69;99723.56;5055256;28;20094;-77
2022/10/17 10:47:25;;;;;;;12.13;1.85;;;;;;;19.44;94.16;99737.34;5061249;28;20045;-77
2022/10/17 10:50:06;;;;;;;3.97;1.30;;;;;;;19.48;92.45;99740.50;5054611;28;20470;-78
2022/10/17 10:52:40;;;;;;;5.85;1.50;;;;;;;19.52;93.21;99738.13;5051234;28;20056;-77
2022/10/17 10:55:27;;;;;;;4.45;1.10;;;;;;;19.61;91.15;99737.56;5056178;28;20493;-78
2022/10/17 10:58:00;;;;;;;5.78;1.23;;;;;;;19.69;93.78;99725.41;5058292;28;20041;-77
2022/10/17 11:00:29;;;;;;;4.70;1.35;;;;;;;19.88;91.88;99731.75;5052351;28;20131;-77
2022/10/17 11:03:04;;;;;;;5.13;1.45;;;;;;;19.90;90.01;99721.34;5054763;28;20063;-78
2022/10/17 11:05:41;;;;;;;4.35;1.20;;;;;;;20.08;89.58;99733.41;5057947;28;20052;-78
2022/10/17 11:08:19;;;;;;;5.80;1.55;;;;;;;20.14;83.68;99721.44;5056223;28;20382;-78
2022/10/17 11:10:59;;;;;;;9.30;1.75;;;;;;;20.35;80.40;99722.81;5058101;28;20147;-78
2022/10/17 11:13:30;;;;;;;4.68;1.55;;;;;;;20.31;81.32;99707.81;5057343;28;20045;-78
2022/10/17 11:16:02;;;;;;;2.53;1.50;;;;;;;20.43;81.08;99707.81;5069203;28;20447;-78
2022/10/17 11:18:35;;;;;;;4.30;1.50;;;;;;;20.56;80.01;99715.91;5068458;28;20052;-78
2022/10/17 11:21:10;;;;;;;4.70;1.23;;;;;;;20.68;78.66;99724.25;5069213;28;20044;-78
2022/10/17 11:23:43;;;;;;;4.40;1.40;;;;;;;20.79;81.24;99697.72;5061631;28;20090;-78
2022/10/17 11:26:16;;;;;;;6.38;1.50;;;;;;;20.96;78.60;99725.50;5071774;28;20139;-78
2022/10/17 11:28:43;;;;;;;3.40;1.50;;;;;;;20.98;77.77;99721.38;5061651;28;20049;-78
2022/10/17 11:31:13;;;;;;;5.72;1.30;;;;;;;21.11;77.92;99725.03;5058650;28;20140;-78
2022/10/17 11:33:46;;;;;;;2.88;1.55;;;;;;;21.20;78.24;99718.88;5056762;28;20407;-78
2022/10/17 11:36:19;;;;;;;3.78;1.38;;;;;;;21.18;77.45;99704.47;5060573;28;20053;-79
2022/10/17 11:38:50;;;;;;;7.32;1.63;;;;;;;21.29;76.61;99707.47;5062357;28;20065;-78